Time;durP1;ratioP1;P1;durP2;ratioP2;P2;SDS_P1;SDS_P2;PMS_P1;PMS_P2;Temp;Humidity;BMP_temperature;BMP_pressure;BME280_temperature;BME280_humidity;BME280_pressure;Samples;Min_cycle;Max_cycle;Signal;HPM_P1;HPM_P2
2023/12/02 00:00:14;;;;;;;;;;;;;;;;;;5055921;28;19928;-82
2023/12/02 00:02:40;;;;;;;;;;;;;;;;;;5056653;28;20264;-82
2023/12/02 00:05:06;;;;;;;;;;;;;;;;;;5056783;28;19988;-82
2023/12/02 00:07:33;;;;;;;;;;;;;;;;;;5054830;28;19932;-82
2023/12/02 00:09:59;;;;;;;;;;;;;;;;;;5056462;28;19924;-82
2023/12/02 00:12:25;;;;;;;;;;;;;;;;;;5056325;28;19925;-82
2023/12/02 00:14:52;;;;;;;;;;;;;;;;;;5056478;28;19931;-82
2023/12/02 00:17:18;;;;;;;;;;;;;;;;;;5055659;28;19928;-81
2023/12/02 00:19:44;;;;;;;;;;;;;;;;;;5056326;28;20370;-82
2023/12/02 00:22:10;;;;;;;;;;;;;;;;;;5055658;28;20439;-82
2023/12/02 00:24:37;;;;;;;;;;;;;;;;;;5056348;28;19983;-82
2023/12/02 00:27:03;;;;;;;;;;;;;;;;;;5056245;28;20011;-83
2023/12/02 00:29:29;;;;;;;;;;;;;;;;;;5055884;28;20314;-81
2023/12/02 00:31:55;;;;;;;;;;;;;;;;;;5055886;28;19992;-82
2023/12/02 00:34:22;;;;;;;;;;;;;;;;;;5056444;28;20385;-81
2023/12/02 00:36:48;;;;;;;;;;;;;;;;;;5054828;28;19928;-82
2023/12/02 00:39:14;;;;;;;;;;;;;;;;;;5056319;28;20019;-82
2023/12/02 00:41:41;;;;;;;;;;;;;;;;;;5055444;28;19992;-81
2023/12/02 00:44:07;;;;;;;;;;;;;;;;;;5056086;28;20035;-81
2023/12/02 00:46:33;;;;;;;;;;;;;;;;;;5055896;28;20355;-81
2023/12/02 00:48:59;;;;;;;;;;;;;;;;;;5055458;28;19924;-83
2023/12/02 00:51:26;;;;;;;;;;;;;;;;;;5054444;28;20392;-82
2023/12/02 00:53:52;;;;;;;;;;;;;;;;;;5055423;28;19932;-81
2023/12/02 00:56:20;;;;;;;;;;;;;;;;;;5055894;28;19935;-82
2023/12/02 00:58:46;;;;;;;;;;;;;;;;;;5055270;28;19925;-82
2023/12/02 01:01:12;;;;;;;;;;;;;;;;;;5055543;28;19991;-82
2023/12/02 01:03:39;;;;;;;;;;;;;;;;;;5055650;28;19925;-82
2023/12/02 01:06:05;;;;;;;;;;;;;;;;;;5055314;28;20359;-82
2023/12/02 01:08:31;;;;;;;;;;;;;;;;;;5055945;28;20011;-81
2023/12/02 01:10:57;;;;;;;;;;;;;;;;;;5056070;28;20016;-83
2023/12/02 01:13:24;;;;;;;;;;;;;;;;;;5054027;28;19924;-84
2023/12/02 01:15:50;;;;;;;;;;;;;;;;;;5053308;28;19932;-82
2023/12/02 01:18:16;;;;;;;;;;;;;;;;;;5054520;28;20305;-80
2023/12/02 01:20:42;;;;;;;;;;;;;;;;;;5055567;28;19931;-83
2023/12/02 01:23:09;;;;;;;;;;;;;;;;;;5054381;28;20004;-83
2023/12/02 01:25:35;;;;;;;;;;;;;;;;;;5054319;28;20019;-82
2023/12/02 01:28:02;;;;;;;;;;;;;;;;;;5054343;28;19925;-82
2023/12/02 01:30:29;;;;;;;;;;;;;;;;;;5054746;28;19983;-82
2023/12/02 01:32:55;;;;;;;;;;;;;;;;;;5054536;28;19929;-83
2023/12/02 01:35:21;;;;;;;;;;;;;;;;;;5053096;28;19932;-82
2023/12/02 01:37:48;;;;;;;;;;;;;;;;;;5054154;28;20275;-83
2023/12/02 01:40:14;;;;;;;;;;;;;;;;;;5053991;28;20011;-82
2023/12/02 01:42:40;;;;;;;;;;;;;;;;;;5054143;28;19947;-82
2023/12/02 01:45:06;;;;;;;;;;;;;;;;;;5056439;28;19931;-82
2023/12/02 01:47:33;;;;;;;;;;;;;;;;;;5054537;28;19932;-83
2023/12/02 01:49:59;;;;;;;;;;;;;;;;;;5054499;28;19975;-82
2023/12/02 01:52:25;;;;;;;;;;;;;;;;;;5053630;28;20390;-82
2023/12/02 01:54:52;;;;;;;;;;;;;;;;;;5053844;28;19947;-83
2023/12/02 01:57:18;;;;;;;;;;;;;;;;;;5054045;28;20019;-82
2023/12/02 01:59:44;;;;;;;;;;;;;;;;;;5054744;28;19925;-82
2023/12/02 02:02:10;;;;;;;;;;;;;;;;;;5054247;28;20031;-82
2023/12/02 02:04:37;;;;;;;;;;;;;;;;;;5054553;28;20011;-82
2023/12/02 02:07:03;;;;;;;;;;;;;;;;;;5054359;28;20007;-83
2023/12/02 02:09:29;;;;;;;;;;;;;;;;;;5054632;28;20309;-83
2023/12/02 02:11:55;;;;;;;;;;;;;;;;;;5058132;28;20015;-82
2023/12/02 02:14:22;;;;;;;;;;;;;;;;;;5058263;28;19924;-82
2023/12/02 02:16:48;;;;;;;;;;;;;;;;;;5058253;28;20462;-82
2023/12/02 02:19:14;;;;;;;;;;;;;;;;;;5057218;28;20383;-83
2023/12/02 02:21:40;;;;;;;;;;;;;;;;;;5057921;28;19925;-82
2023/12/02 02:24:07;;;;;;;;;;;;;;;;;;5058024;28;19931;-82
2023/12/02 02:26:35;;;;;;;;;;;;;;;;;;5056788;28;19925;-82
2023/12/02 02:29:01;;;;;;;;;;;;;;;;;;5059228;28;20003;-82
2023/12/02 02:31:27;;;;;;;;;;;;;;;;;;5057067;28;19931;-82
2023/12/02 02:33:54;;;;;;;;;;;;;;;;;;5058829;28;20050;-83
2023/12/02 02:36:21;;;;;;;;;;;;;;;;;;5058335;28;20016;-82
2023/12/02 02:38:47;;;;;;;;;;;;;;;;;;5058719;28;20015;-83
2023/12/02 02:41:13;;;;;;;;;;;;;;;;;;5058317;28;20007;-82
2023/12/02 02:43:40;;;;;;;;;;;;;;;;;;5058095;28;19924;-82
2023/12/02 02:46:07;;;;;;;;;;;;;;;;;;5058147;28;19924;-82
2023/12/02 02:48:33;;;;;;;;;;;;;;;;;;5058545;28;19925;-82
2023/12/02 02:51:00;;;;;;;;;;;;;;;;;;5057770;28;19959;-83
2023/12/02 02:53:26;;;;;;;;;;;;;;;;;;5056798;28;19929;-83
2023/12/02 02:55:52;;;;;;;;;;;;;;;;;;5057310;28;20387;-83
2023/12/02 02:58:18;;;;;;;;;;;;;;;;;;5057264;28;19929;-82
2023/12/02 03:00:47;;;;;;;;;;;;;;;;;;5057780;28;20390;-82
2023/12/02 03:03:13;;;;;;;;;;;;;;;;;;5057575;28;19925;-83
2023/12/02 03:05:40;;;;;;;;;;;;;;;;;;5057234;28;19931;-82
2023/12/02 03:08:06;;;;;;;;;;;;;;;;;;5057115;28;19960;-82
2023/12/02 03:10:33;;;;;;;;;;;;;;;;;;5057615;28;19993;-82
2023/12/02 03:12:59;;;;;;;;;;;;;;;;;;5057362;28;19925;-82
2023/12/02 03:15:26;;;;;;;;;;;;;;;;;;5058113;28;19928;-82
2023/12/02 03:17:53;;;;;;;;;;;;;;;;;;5055877;28;19932;-83
2023/12/02 03:20:19;;;;;;;;;;;;;;;;;;5057748;28;19948;-82
2023/12/02 03:22:46;;;;;;;;;;;;;;;;;;5056354;28;19984;-82
2023/12/02 03:25:12;;;;;;;;;;;;;;;;;;5057555;28;20318;-82
2023/12/02 03:27:38;;;;;;;;;;;;;;;;;;5056020;28;19925;-82
2023/12/02 03:30:04;;;;;;;;;;;;;;;;;;5057432;28;20012;-82
2023/12/02 03:32:31;;;;;;;;;;;;;;;;;;5056557;28;20008;-82
2023/12/02 03:34:57;;;;;;;;;;;;;;;;;;5057167;28;19920;-83
2023/12/02 03:37:24;;;;;;;;;;;;;;;;;;5057107;28;19931;-83
2023/12/02 03:39:50;;;;;;;;;;;;;;;;;;5057366;28;19932;-82
2023/12/02 03:42:16;;;;;;;;;;;;;;;;;;5056521;28;19935;-83
2023/12/02 03:44:42;;;;;;;;;;;;;;;;;;5055509;28;19925;-82
2023/12/02 03:47:08;;;;;;;;;;;;;;;;;;5056690;28;20015;-83
2023/12/02 03:49:35;;;;;;;;;;;;;;;;;;5055724;28;20354;-82
2023/12/02 03:52:01;;;;;;;;;;;;;;;;;;5056646;28;19931;-82
2023/12/02 03:54:27;;;;;;;;;;;;;;;;;;5057170;28;19992;-81
2023/12/02 03:56:54;;;;;;;;;;;;;;;;;;5056257;28;20443;-81
2023/12/02 03:59:20;;;;;;;;;;;;;;;;;;5055556;28;19931;-83
2023/12/02 04:01:46;;;;;;;;;;;;;;;;;;5056402;28;20007;-82
2023/12/02 04:04:13;;;;;;;;;;;;;;;;;;5056212;28;19991;-83
2023/12/02 04:06:39;;;;;;;;;;;;;;;;;;5054949;28;19993;-82
2023/12/02 04:09:06;;;;;;;;;;;;;;;;;;5056740;28;20019;-83
2023/12/02 04:11:32;;;;;;;;;;;;;;;;;;5055656;28;19924;-81
2023/12/02 04:13:58;;;;;;;;;;;;;;;;;;5056228;28;20363;-82
2023/12/02 04:16:25;;;;;;;;;;;;;;;;;;5055639;28;19925;-84
2023/12/02 04:18:51;;;;;;;;;;;;;;;;;;5056444;28;20015;-81
2023/12/02 04:21:17;;;;;;;;;;;;;;;;;;5056073;28;19979;-82
2023/12/02 04:23:44;;;;;;;;;;;;;;;;;;5055492;28;20012;-82
2023/12/02 04:26:10;;;;;;;;;;;;;;;;;;5056232;28;20019;-81
2023/12/02 04:28:37;;;;;;;;;;;;;;;;;;5055624;28;19975;-83
2023/12/02 04:31:03;;;;;;;;;;;;;;;;;;5055496;28;19959;-82
2023/12/02 04:33:29;;;;;;;;;;;;;;;;;;5056910;28;20015;-81
2023/12/02 04:35:55;;;;;;;;;;;;;;;;;;5054397;28;19925;-82
2023/12/02 04:38:22;;;;;;;;;;;;;;;;;;5055771;28;19925;-81
2023/12/02 04:40:48;;;;;;;;;;;;;;;;;;5055420;28;20345;-83
2023/12/02 04:43:15;;;;;;;;;;;;;;;;;;5053544;28;19925;-81
2023/12/02 04:45:41;;;;;;;;;;;;;;;;;;5055692;28;20031;-82
2023/12/02 04:48:07;;;;;;;;;;;;;;;;;;5054514;28;19931;-83
2023/12/02 04:50:33;;;;;;;;;;;;;;;;;;5055425;28;20391;-82
2023/12/02 04:53:00;;;;;;;;;;;;;;;;;;5055233;28;20008;-83
2023/12/02 04:55:26;;;;;;;;;;;;;;;;;;5055682;28;20020;-83
2023/12/02 04:57:52;;;;;;;;;;;;;;;;;;5054535;28;20353;-81
2023/12/02 05:00:18;;;;;;;;;;;;;;;;;;5055248;28;20023;-81
2023/12/02 05:02:47;;;;;;;;;;;;;;;;;;5053926;28;21360;-83
2023/12/02 05:05:13;;;;;;;;;;;;;;;;;;5055185;28;20019;-81
2023/12/02 05:07:39;;;;;;;;;;;;;;;;;;5054166;28;19925;-81
2023/12/02 05:10:06;;;;;;;;;;;;;;;;;;5053852;28;19925;-82
2023/12/02 05:12:32;;;;;;;;;;;;;;;;;;5054975;28;19931;-82
2023/12/02 05:14:58;;;;;;;;;;;;;;;;;;5055074;28;20453;-81
2023/12/02 05:17:25;;;;;;;;;;;;;;;;;;5053038;28;19988;-83
2023/12/02 05:19:51;;;;;;;;;;;;;;;;;;5055539;28;19926;-81
2023/12/02 05:22:17;;;;;;;;;;;;;;;;;;5054299;28;20446;-81
2023/12/02 05:24:44;;;;;;;;;;;;;;;;;;5054552;28;19931;-83
2023/12/02 05:27:10;;;;;;;;;;;;;;;;;;5054549;28;20024;-83
2023/12/02 05:29:37;;;;;;;;;;;;;;;;;;5053822;28;19975;-83
2023/12/02 05:32:03;;;;;;;;;;;;;;;;;;5055044;28;20426;-82
2023/12/02 05:34:29;;;;;;;;;;;;;;;;;;5053540;28;19925;-84
2023/12/02 05:36:56;;;;;;;;;;;;;;;;;;5053560;28;19967;-83
2023/12/02 05:39:22;;;;;;;;;;;;;;;;;;5054854;28;19925;-82
2023/12/02 05:41:49;;;;;;;;;;;;;;;;;;5054605;28;20430;-84
2023/12/02 05:44:15;;;;;;;;;;;;;;;;;;5055270;28;20018;-82
2023/12/02 05:46:41;;;;;;;;;;;;;;;;;;5058833;28;19925;-82
2023/12/02 05:49:07;;;;;;;;;;;;;;;;;;5058274;28;20011;-82
2023/12/02 05:51:33;;;;;;;;;;;;;;;;;;5058908;28;20011;-82
2023/12/02 05:54:00;;;;;;;;;;;;;;;;;;5059000;28;20011;-82
2023/12/02 05:56:27;;;;;;;;;;;;;;;;;;5056810;28;19929;-82
2023/12/02 05:58:54;;;;;;;;;;;;;;;;;;5058143;28;19924;-82
2023/12/02 06:01:20;;;;;;;;;;;;;;;;;;5058540;28;20321;-82
2023/12/02 06:03:47;;;;;;;;;;;;;;;;;;5057529;28;19950;-82
2023/12/02 06:06:13;;;;;;;;;;;;;;;;;;5058376;28;19970;-83
2023/12/02 06:08:40;;;;;;;;;;;;;;;;;;5058613;28;20003;-83
2023/12/02 06:11:06;;;;;;;;;;;;;;;;;;5056433;28;19991;-83
2023/12/02 06:13:32;;;;;;;;;;;;;;;;;;5058808;28;19931;-84
2023/12/02 06:15:59;;;;;;;;;;;;;;;;;;5058675;28;19932;-84
2023/12/02 06:18:25;;;;;;;;;;;;;;;;;;5058106;28;19931;-83
2023/12/02 06:20:51;;;;;;;;;;;;;;;;;;5058750;28;19924;-82
2023/12/02 06:23:18;;;;;;;;;;;;;;;;;;5058890;28;20289;-82
2023/12/02 06:25:44;;;;;;;;;;;;;;;;;;5058221;28;19925;-81
2023/12/02 06:28:13;;;;;;;;;;;;;;;;;;5058430;28;19928;-82
2023/12/02 06:30:40;;;;;;;;;;;;;;;;;;5058599;28;19925;-82
2023/12/02 06:33:06;;;;;;;;;;;;;;;;;;5058427;28;20028;-82
2023/12/02 06:35:32;;;;;;;;;;;;;;;;;;5058512;28;20335;-82
2023/12/02 06:37:59;;;;;;;;;;;;;;;;;;5055604;28;19931;-82
2023/12/02 06:40:25;;;;;;;;;;;;;;;;;;5058716;28;20306;-82
2023/12/02 06:42:52;;;;;;;;;;;;;;;;;;5058498;28;19924;-82
2023/12/02 06:45:18;;;;;;;;;;;;;;;;;;5057680;28;19928;-81
2023/12/02 06:47:44;;;;;;;;;;;;;;;;;;5057259;28;19925;-81
2023/12/02 06:50:10;;;;;;;;;;;;;;;;;;5058008;28;20012;-81
2023/12/02 06:52:37;;;;;;;;;;;;;;;;;;5057119;28;19929;-81
2023/12/02 06:55:03;;;;;;;;;;;;;;;;;;5061135;28;19925;-81
2023/12/02 06:57:31;;;;;;;;;;;;;;;;;;5059870;28;19964;-81
2023/12/02 06:59:57;;;;;;;;;;;;;;;;;;5063554;28;19929;-81
2023/12/02 07:02:23;;;;;;;;;;;;;;;;;;5062420;28;20016;-82
2023/12/02 07:04:49;;;;;;;;;;;;;;;;;;5063068;28;19925;-82
2023/12/02 07:07:16;;;;;;;;;;;;;;;;;;5062857;28;20358;-82
2023/12/02 07:09:42;;;;;;;;;;;;;;;;;;5062658;28;20000;-81
2023/12/02 07:12:08;;;;;;;;;;;;;;;;;;5062333;28;20008;-81
2023/12/02 07:14:34;;;;;;;;;;;;;;;;;;5062626;28;20019;-81
2023/12/02 07:17:01;;;;;;;;;;;;;;;;;;5060510;28;19928;-81
2023/12/02 07:19:27;;;;;;;;;;;;;;;;;;5062481;28;20352;-82
2023/12/02 07:21:53;;;;;;;;;;;;;;;;;;5060094;28;20023;-81
2023/12/02 07:24:20;;;;;;;;;;;;;;;;;;5061275;28;20025;-81
2023/12/02 07:26:46;;;;;;;;;;;;;;;;;;5059246;28;19929;-82
2023/12/02 07:29:13;;;;;;;;;;;;;;;;;;5059794;28;19996;-82
2023/12/02 07:31:39;;;;;;;;;;;;;;;;;;5060549;28;20023;-83
2023/12/02 07:34:05;;;;;;;;;;;;;;;;;;5060029;28;20015;-81
2023/12/02 07:36:32;;;;;;;;;;;;;;;;;;5060329;28;20007;-81
2023/12/02 07:38:58;;;;;;;;;;;;;;;;;;5061223;28;20019;-81
2023/12/02 07:41:24;;;;;;;;;;;;;;;;;;5060884;28;20284;-81
2023/12/02 07:43:51;;;;;;;;;;;;;;;;;;5059368;28;19935;-82
2023/12/02 07:46:17;;;;;;;;;;;;;;;;;;5059563;28;19963;-81
2023/12/02 07:48:44;;;;;;;;;;;;;;;;;;5061074;28;20020;-81
2023/12/02 07:51:10;;;;;;;;;;;;;;;;;;5060018;28;20008;-82
2023/12/02 07:53:36;;;;;;;;;;;;;;;;;;5060667;28;20051;-82
2023/12/02 07:56:03;;;;;;;;;;;;;;;;;;5059368;28;19932;-82
2023/12/02 07:58:29;;;;;;;;;;;;;;;;;;5060337;28;19924;-81
2023/12/02 08:00:55;;;;;;;;;;;;;;;;;;5057872;28;20019;-84
2023/12/02 08:03:22;;;;;;;;;;;;;;;;;;5059477;28;19984;-81
2023/12/02 08:05:48;;;;;;;;;;;;;;;;;;5059818;28;19992;-81
2023/12/02 08:08:14;;;;;;;;;;;;;;;;;;5059579;28;19984;-81
2023/12/02 08:10:40;;;;;;;;;;;;;;;;;;5059841;28;20008;-82
2023/12/02 08:13:07;;;;;;;;;;;;;;;;;;5058908;28;20310;-82
2023/12/02 08:15:33;;;;;;;;;;;;;;;;;;5059566;28;19925;-83
2023/12/02 08:18:00;;;;;;;;;;;;;;;;;;5058520;28;20447;-80
2023/12/02 08:20:29;;;;;;;;;;;;;;;;;;5060354;28;20019;-81
2023/12/02 08:22:55;;;;;;;;;;;;;;;;;;5060381;28;20292;-81
2023/12/02 08:25:21;;;;;;;;;;;;;;;;;;5059415;28;19925;-83
2023/12/02 08:27:48;;;;;;;;;;;;;;;;;;5058307;28;20007;-82
2023/12/02 08:30:15;;;;;;;;;;;;;;;;;;5058889;28;20355;-83
2023/12/02 08:32:41;;;;;;;;;;;;;;;;;;5059606;28;20458;-83
2023/12/02 08:35:07;;;;;;;;;;;;;;;;;;5059275;28;19928;-83
2023/12/02 08:37:35;;;;;;;;;;;;;;;;;;5058973;28;20023;-83
2023/12/02 08:40:05;;;;;;;;;;;;;;;;;;5060195;28;19986;-83
2023/12/02 08:42:32;;;;;;;;;;;;;;;;;;5058692;28;19960;-83
2023/12/02 08:44:58;;;;;;;;;;;;;;;;;;5058813;28;19925;-83
2023/12/02 08:47:25;;;;;;;;;;;;;;;;;;5059202;28;19980;-82
2023/12/02 08:49:51;;;;;;;;;;;;;;;;;;5057889;28;20007;-82
2023/12/02 08:52:17;;;;;;;;;;;;;;;;;;5059117;28;20019;-83
2023/12/02 08:54:44;;;;;;;;;;;;;;;;;;5059240;28;19984;-83
2023/12/02 08:57:12;;;;;;;;;;;;;;;;;;5059176;28;20012;-82
2023/12/02 08:59:38;;;;;;;;;;;;;;;;;;5060015;28;19924;-83
2023/12/02 09:02:05;;;;;;;;;;;;;;;;;;5059177;28;19992;-83
2023/12/02 09:04:32;;;;;;;;;;;;;;;;;;5058655;28;20001;-82
2023/12/02 09:06:58;;;;;;;;;;;;;;;;;;5057857;28;19932;-82
2023/12/02 09:09:24;;;;;;;;;;;;;;;;;;5058446;28;20016;-82
2023/12/02 09:11:51;;;;;;;;;;;;;;;;;;5059253;28;19963;-83
2023/12/02 09:14:17;;;;;;;;;;;;;;;;;;5059351;28;19979;-82
2023/12/02 09:16:47;;;;;;;;;;;;;;;;;;5057294;28;19925;-82
2023/12/02 09:19:13;;;;;;;;;;;;;;;;;;5058457;28;19931;-82
2023/12/02 09:21:41;;;;;;;;;;;;;;;;;;5056858;28;19925;-83
2023/12/02 09:24:07;;;;;;;;;;;;;;;;;;5058762;28;19931;-82
2023/12/02 09:26:34;;;;;;;;;;;;;;;;;;5058018;28;20318;-83
2023/12/02 09:29:00;;;;;;;;;;;;;;;;;;5059838;28;19931;-83
2023/12/02 09:31:26;;;;;;;;;;;;;;;;;;5057748;28;19962;-82
2023/12/02 09:33:52;;;;;;;;;;;;;;;;;;5058517;28;19921;-83
2023/12/02 09:36:18;;;;;;;;;;;;;;;;;;5058884;28;19992;-83
2023/12/02 09:38:45;;;;;;;;;;;;;;;;;;5058721;28;19973;-82
2023/12/02 09:41:11;;;;;;;;;;;;;;;;;;5059238;28;20035;-83
2023/12/02 09:43:37;;;;;;;;;;;;;;;;;;5058356;28;20406;-82
2023/12/02 09:46:02;;;;;;;;;;;;;;;;;;5057260;28;19932;-82
2023/12/02 09:48:28;;;;;;;;;;;;;;;;;;5059064;28;19943;-83
2023/12/02 09:50:55;;;;;;;;;;;;;;;;;;5059575;28;19925;-82
2023/12/02 09:53:21;;;;;;;;;;;;;;;;;;5057746;28;20015;-83
2023/12/02 09:55:47;;;;;;;;;;;;;;;;;;5059347;28;20023;-83
2023/12/02 09:58:14;;;;;;;;;;;;;;;;;;5057835;28;19925;-82
2023/12/02 10:00:40;;;;;;;;;;;;;;;;;;5058411;28;20100;-83
2023/12/02 10:03:07;;;;;;;;;;;;;;;;;;5058278;28;19925;-82
2023/12/02 10:05:33;;;;;;;;;;;;;;;;;;5058209;28;19996;-83
2023/12/02 10:08:00;;;;;;;;;;;;;;;;;;5056348;28;20003;-82
2023/12/02 10:10:26;;;;;;;;;;;;;;;;;;5058139;28;19972;-83
2023/12/02 10:12:53;;;;;;;;;;;;;;;;;;5055493;28;19925;-83
2023/12/02 10:15:19;;;;;;;;;;;;;;;;;;5059206;28;20023;-84
2023/12/02 10:17:46;;;;;;;;;;;;;;;;;;5056868;28;20020;-82
2023/12/02 10:20:13;;;;;;;;;;;;;;;;;;5056725;28;19924;-82
2023/12/02 10:22:39;;;;;;;;;;;;;;;;;;5055224;28;19925;-82
2023/12/02 10:25:06;;;;;;;;;;;;;;;;;;5056882;28;20354;-82
2023/12/02 10:27:32;;;;;;;;;;;;;;;;;;5056926;28;20003;-82
2023/12/02 10:29:58;;;;;;;;;;;;;;;;;;5056537;28;19931;-82
2023/12/02 10:32:25;;;;;;;;;;;;;;;;;;5059258;28;20011;-82
2023/12/02 10:34:51;;;;;;;;;;;;;;;;;;5060344;28;20290;-81
2023/12/02 10:37:17;;;;;;;;;;;;;;;;;;5059162;28;20015;-84
2023/12/02 10:39:43;;;;;;;;;;;;;;;;;;5060333;28;20024;-82
2023/12/02 10:42:09;;;;;;;;;;;;;;;;;;5059321;28;20009;-82
2023/12/02 10:44:36;;;;;;;;;;;;;;;;;;5060220;28;20019;-82
2023/12/02 10:47:02;;;;;;;;;;;;;;;;;;5059882;28;20008;-82
2023/12/02 10:49:28;;;;;;;;;;;;;;;;;;5062460;28;19960;-81
2023/12/02 10:51:55;;;;;;;;;;;;;;;;;;5063359;28;20438;-81
2023/12/02 10:54:23;;;;;;;;;;;;;;;;;;5059849;28;20012;-81
2023/12/02 10:56:50;;;;;;;;;;;;;;;;;;5064819;28;19925;-82
2023/12/02 10:59:16;;;;;;;;;;;;;;;;;;5063623;28;19925;-80
2023/12/02 11:01:43;;;;;;;;;;;;;;;;;;5062921;28;19964;-80
2023/12/02 11:04:09;;;;;;;;;;;;;;;;;;5063057;28;19971;-81
2023/12/02 11:06:35;;;;;;;;;;;;;;;;;;5063670;28;19988;-80
2023/12/02 11:09:02;;;;;;;;;;;;;;;;;;5061740;28;20015;-83
2023/12/02 11:11:28;;;;;;;;;;;;;;;;;;5063692;28;19929;-82
2023/12/02 11:13:54;;;;;;;;;;;;;;;;;;5060423;28;20008;-83
2023/12/02 11:16:20;;;;;;;;;;;;;;;;;;5058025;28;19924;-81
2023/12/02 11:18:47;;;;;;;;;;;;;;;;;;5061367;28;20012;-80
2023/12/02 11:21:15;;;;;;;;;;;;;;;;;;5060306;28;19964;-81
2023/12/02 11:23:41;;;;;;;;;;;;;;;;;;5061099;28;19928;-81
2023/12/02 11:26:08;;;;;;;;;;;;;;;;;;5062250;28;20015;-81
2023/12/02 11:28:34;;;;;;;;;;;;;;;;;;5061489;28;20463;-81
2023/12/02 11:31:03;;;;;;;;;;;;;;;;;;5062347;28;19978;-80
2023/12/02 11:33:29;;;;;;;;;;;;;;;;;;5059971;28;20398;-81
2023/12/02 11:35:55;;;;;;;;;;;;;;;;;;5061622;28;19992;-81
2023/12/02 11:38:22;;;;;;;;;;;;;;;;;;5059754;28;20421;-81
2023/12/02 11:40:48;;;;;;;;;;;;;;;;;;5061017;28;19936;-81
2023/12/02 11:43:14;;;;;;;;;;;;;;;;;;5059819;28;20015;-81
2023/12/02 11:45:41;;;;;;;;;;;;;;;;;;5060506;28;20360;-81
2023/12/02 11:48:06;;;;;;;;;;;;;;;;;;5060502;28;19925;-82
2023/12/02 11:50:32;;;;;;;;;;;;;;;;;;5060617;28;19927;-82
2023/12/02 11:52:59;;;;;;;;;;;;;;;;;;5060787;28;19932;-82
2023/12/02 11:55:25;;;;;;;;;;;;;;;;;;5059545;28;20027;-81
2023/12/02 11:57:51;;;;;;;;;;;;;;;;;;5060039;28;20369;-82
2023/12/02 12:00:18;;;;;;;;;;;;;;;;;;5059352;28;20474;-82
2023/12/02 12:02:44;;;;;;;;;;;;;;;;;;5058250;28;19928;-82
2023/12/02 12:05:11;;;;;;;;;;;;;;;;;;5059388;28;20004;-82
2023/12/02 12:07:38;;;;;;;;;;;;;;;;;;5060817;28;19925;-82
2023/12/02 12:10:04;;;;;;;;;;;;;;;;;;5060283;28;20363;-81
2023/12/02 12:12:31;;;;;;;;;;;;;;;;;;5060649;28;19947;-82
2023/12/02 12:15:00;;;;;;;;;;;;;;;;;;5060370;28;19985;-82
2023/12/02 12:17:26;;;;;;;;;;;;;;;;;;5061167;28;20301;-82
2023/12/02 12:19:53;;;;;;;;;;;;;;;;;;5059495;28;20008;-81
2023/12/02 12:22:19;;;;;;;;;;;;;;;;;;5060355;28;20043;-82
2023/12/02 12:24:46;;;;;;;;;;;;;;;;;;5059909;28;20003;-81
2023/12/02 12:27:13;;;;;;;;;;;;;;;;;;5060250;28;19925;-82
2023/12/02 12:29:39;;;;;;;;;;;;;;;;;;5059128;28;20385;-82
2023/12/02 12:32:05;;;;;;;;;;;;;;;;;;5059864;28;20024;-82
2023/12/02 12:34:31;;;;;;;;;;;;;;;;;;5059393;28;19947;-81
2023/12/02 12:36:58;;;;;;;;;;;;;;;;;;5059650;28;20012;-81
2023/12/02 12:39:24;;;;;;;;;;;;;;;;;;5059192;28;20024;-82
2023/12/02 12:41:52;;;;;;;;;;;;;;;;;;5058498;28;20032;-81
2023/12/02 12:44:19;;;;;;;;;;;;;;;;;;5058340;28;19935;-82
2023/12/02 12:46:45;;;;;;;;;;;;;;;;;;5059108;28;19929;-82
2023/12/02 12:49:11;;;;;;;;;;;;;;;;;;5058037;28;19988;-82
2023/12/02 12:51:38;;;;;;;;;;;;;;;;;;5058004;28;20016;-83
2023/12/02 12:54:04;;;;;;;;;;;;;;;;;;5054934;28;19925;-83
2023/12/02 12:56:30;;;;;;;;;;;;;;;;;;5058709;28;20380;-81
2023/12/02 12:58:57;;;;;;;;;;;;;;;;;;5056637;28;19947;-82
2023/12/02 13:01:23;;;;;;;;;;;;;;;;;;5058468;28;19974;-82
2023/12/02 13:03:49;;;;;;;;;;;;;;;;;;5054772;28;19931;-82
2023/12/02 13:06:16;;;;;;;;;;;;;;;;;;5057437;28;20023;-83
2023/12/02 13:08:42;;;;;;;;;;;;;;;;;;5056401;28;19952;-83
2023/12/02 13:11:08;;;;;;;;;;;;;;;;;;5056365;28;20470;-84
2023/12/02 13:13:35;;;;;;;;;;;;;;;;;;5057297;28;20004;-82
2023/12/02 13:16:02;;;;;;;;;;;;;;;;;;5060219;28;19967;-84
2023/12/02 13:18:28;;;;;;;;;;;;;;;;;;5058199;28;19932;-83
2023/12/02 13:20:55;;;;;;;;;;;;;;;;;;5057300;28;20021;-81
2023/12/02 13:23:21;;;;;;;;;;;;;;;;;;5056884;28;20035;-81
2023/12/02 13:25:47;;;;;;;;;;;;;;;;;;5055715;28;19990;-82
2023/12/02 13:28:14;;;;;;;;;;;;;;;;;;5056416;28;20012;-82
2023/12/02 13:30:40;;;;;;;;;;;;;;;;;;5056812;28;19932;-82
2023/12/02 13:33:09;;;;;;;;;;;;;;;;;;5056911;28;19932;-83
2023/12/02 13:35:35;;;;;;;;;;;;;;;;;;5056761;28;19925;-83
2023/12/02 13:38:01;;;;;;;;;;;;;;;;;;5057391;28;20474;-81
2023/12/02 13:40:27;;;;;;;;;;;;;;;;;;5057010;28;19931;-82
2023/12/02 13:42:54;;;;;;;;;;;;;;;;;;5055440;28;19925;-83
2023/12/02 13:45:20;;;;;;;;;;;;;;;;;;5056357;28;19932;-82
2023/12/02 13:47:46;;;;;;;;;;;;;;;;;;5056585;28;19992;-82
2023/12/02 13:50:13;;;;;;;;;;;;;;;;;;5056192;28;20015;-83
2023/12/02 13:52:39;;;;;;;;;;;;;;;;;;5057114;28;20011;-82
2023/12/02 13:55:06;;;;;;;;;;;;;;;;;;5056465;28;19931;-82
2023/12/02 13:57:32;;;;;;;;;;;;;;;;;;5056900;28;19928;-81
2023/12/02 13:59:58;;;;;;;;;;;;;;;;;;5056163;28;20310;-83
2023/12/02 14:02:24;;;;;;;;;;;;;;;;;;5056834;28;20016;-83
2023/12/02 14:04:51;;;;;;;;;;;;;;;;;;5055808;28;19999;-82
2023/12/02 14:07:18;;;;;;;;;;;;;;;;;;5060293;28;19929;-81
2023/12/02 14:09:44;;;;;;;;;;;;;;;;;;5059878;28;19931;-82
2023/12/02 14:12:10;;;;;;;;;;;;;;;;;;5058924;28;20378;-82
2023/12/02 14:14:38;;;;;;;;;;;;;;;;;;5058839;28;19925;-81
2023/12/02 14:17:05;;;;;;;;;;;;;;;;;;5059926;28;19931;-82
2023/12/02 14:19:31;;;;;;;;;;;;;;;;;;5058676;28;20008;-81
2023/12/02 14:21:57;;;;;;;;;;;;;;;;;;5058588;28;19931;-82
2023/12/02 14:24:24;;;;;;;;;;;;;;;;;;5059144;28;20011;-82
2023/12/02 14:26:51;;;;;;;;;;;;;;;;;;5059848;28;19932;-82
2023/12/02 14:29:17;;;;;;;;;;;;;;;;;;5058366;28;19960;-82
2023/12/02 14:31:43;;;;;;;;;;;;;;;;;;5059645;28;20410;-82
2023/12/02 14:34:10;;;;;;;;;;;;;;;;;;5058940;28;20003;-81
2023/12/02 14:36:36;;;;;;;;;;;;;;;;;;5060197;28;20011;-82
2023/12/02 14:39:03;;;;;;;;;;;;;;;;;;5059477;28;19925;-83
2023/12/02 14:41:29;;;;;;;;;;;;;;;;;;5059235;28;19929;-82
2023/12/02 14:43:56;;;;;;;;;;;;;;;;;;5058376;28;19931;-81
2023/12/02 14:46:22;;;;;;;;;;;;;;;;;;5059085;28;20449;-82
2023/12/02 14:48:48;;;;;;;;;;;;;;;;;;5057742;28;20341;-83
2023/12/02 14:51:15;;;;;;;;;;;;;;;;;;5058942;28;20345;-82
2023/12/02 14:53:41;;;;;;;;;;;;;;;;;;5058450;28;20024;-82
2023/12/02 14:56:07;;;;;;;;;;;;;;;;;;5059363;28;20012;-82
2023/12/02 14:58:35;;;;;;;;;;;;;;;;;;5058838;28;19960;-82
2023/12/02 15:01:01;;;;;;;;;;;;;;;;;;5058428;28;20368;-81
2023/12/02 15:03:29;;;;;;;;;;;;;;;;;;5057833;28;19984;-80
2023/12/02 15:05:56;;;;;;;;;;;;;;;;;;5058743;28;19925;-82
2023/12/02 15:08:22;;;;;;;;;;;;;;;;;;5056874;28;19925;-82
2023/12/02 15:10:48;;;;;;;;;;;;;;;;;;5055243;28;19957;-82
2023/12/02 15:13:15;;;;;;;;;;;;;;;;;;5056505;28;20023;-82
2023/12/02 15:15:42;;;;;;;;;;;;;;;;;;5059711;28;20001;-80
2023/12/02 15:18:08;;;;;;;;;;;;;;;;;;5056648;28;20306;-81
2023/12/02 15:20:34;;;;;;;;;;;;;;;;;;5057726;28;20010;-83
2023/12/02 15:23:00;;;;;;;;;;;;;;;;;;5057987;28;19925;-81
2023/12/02 15:25:27;;;;;;;;;;;;;;;;;;5057463;28;19987;-81
2023/12/02 15:27:53;;;;;;;;;;;;;;;;;;5056905;28;19925;-81
2023/12/02 15:30:19;;;;;;;;;;;;;;;;;;5057189;28;20011;-81
2023/12/02 15:32:45;;;;;;;;;;;;;;;;;;5056834;28;20020;-83
2023/12/02 15:35:12;;;;;;;;;;;;;;;;;;5055976;28;20017;-84
2023/12/02 15:37:38;;;;;;;;;;;;;;;;;;5056313;28;19931;-82
2023/12/02 15:40:04;;;;;;;;;;;;;;;;;;5055898;28;20028;-83
2023/12/02 15:42:30;;;;;;;;;;;;;;;;;;5057985;28;19929;-82
2023/12/02 15:44:57;;;;;;;;;;;;;;;;;;5056104;28;20008;-82
2023/12/02 15:47:23;;;;;;;;;;;;;;;;;;5056598;28;20458;-82
2023/12/02 15:49:49;;;;;;;;;;;;;;;;;;5055852;28;20011;-83
2023/12/02 15:52:16;;;;;;;;;;;;;;;;;;5055119;28;19925;-82
2023/12/02 15:54:42;;;;;;;;;;;;;;;;;;5055501;28;20011;-81
2023/12/02 15:57:08;;;;;;;;;;;;;;;;;;5054185;28;19925;-84
2023/12/02 15:59:35;;;;;;;;;;;;;;;;;;5055249;28;19932;-84
2023/12/02 16:02:01;;;;;;;;;;;;;;;;;;5056062;28;19935;-83
2023/12/02 16:04:28;;;;;;;;;;;;;;;;;;5055586;28;19924;-83
2023/12/02 16:06:54;;;;;;;;;;;;;;;;;;5056015;28;19924;-83
2023/12/02 16:09:20;;;;;;;;;;;;;;;;;;5055372;28;20350;-84
2023/12/02 16:11:47;;;;;;;;;;;;;;;;;;5055738;28;20306;-85
2023/12/02 16:14:13;;;;;;;;;;;;;;;;;;5054976;28;20353;-85
2023/12/02 16:16:40;;;;;;;;;;;;;;;;;;5055510;28;20004;-84
2023/12/02 16:19:06;;;;;;;;;;;;;;;;;;5054876;28;19968;-84
2023/12/02 16:21:32;;;;;;;;;;;;;;;;;;5054871;28;19929;-84
2023/12/02 16:23:59;;;;;;;;;;;;;;;;;;5052830;28;19931;-84
2023/12/02 16:26:26;;;;;;;;;;;;;;;;;;5053915;28;19932;-84
2023/12/02 16:28:53;;;;;;;;;;;;;;;;;;5054245;28;20011;-84
2023/12/02 16:31:19;;;;;;;;;;;;;;;;;;5054585;28;19929;-84
2023/12/02 16:33:45;;;;;;;;;;;;;;;;;;5054336;28;19925;-84
2023/12/02 16:36:11;;;;;;;;;;;;;;;;;;5054829;28;19925;-84
2023/12/02 16:38:40;;;;;;;;;;;;;;;;;;5054085;28;19925;-84